Time;durP1;ratioP1;P1;durP2;ratioP2;P2;SDS_P1;SDS_P2;PMS_P1;PMS_P2;Temp;Humidity;BMP_temperature;BMP_pressure;BME280_temperature;BME280_humidity;BME280_pressure;Samples;Min_cycle;Max_cycle;Signal;HPM_P1;HPM_P2
2021/12/30 00:00:56;;;;;;;1.65;1.55;;;19.70;72.10;;;;;;5123350;28;20326;-44
2021/12/30 00:03:22;;;;;;;2.03;1.70;;;19.70;72.10;;;;;;5123174;28;20043;-43
2021/12/30 00:05:48;;;;;;;1.70;1.60;;;19.70;72.00;;;;;;5123045;28;20032;-43
2021/12/30 00:08:15;;;;;;;1.70;1.60;;;19.70;72.00;;;;;;5123412;28;20039;-43
2021/12/30 00:10:41;;;;;;;1.92;1.63;;;19.70;71.90;;;;;;5108298;28;20032;-42
2021/12/30 00:13:07;;;;;;;1.70;1.60;;;19.70;71.90;;;;;;5120510;28;20055;-43
2021/12/30 00:15:33;;;;;;;1.65;1.55;;;19.70;71.90;;;;;;5127289;28;20023;-43
2021/12/30 00:17:59;;;;;;;2.05;1.55;;;19.70;71.90;;;;;;5127534;28;20027;-43
2021/12/30 00:20:26;;;;;;;1.85;1.70;;;19.70;72.00;;;;;;5115393;28;20034;-42
2021/12/30 00:22:52;;;;;;;2.03;1.67;;;19.70;72.00;;;;;;5127384;28;20057;-43
2021/12/30 00:25:19;;;;;;;2.17;1.60;;;19.70;72.20;;;;;;5127162;28;20035;-42
2021/12/30 00:27:45;;;;;;;1.52;1.42;;;19.70;72.20;;;;;;5125716;28;20034;-43
2021/12/30 00:30:11;;;;;;;1.58;1.48;;;19.70;72.30;;;;;;5127305;28;20046;-43
2021/12/30 00:32:37;;;;;;;1.70;1.60;;;19.70;72.30;;;;;;5127144;28;20023;-43
2021/12/30 00:35:04;;;;;;;2.05;1.77;;;19.70;72.40;;;;;;5126440;28;20260;-42
2021/12/30 00:37:30;;;;;;;1.65;1.55;;;19.70;72.60;;;;;;5127073;28;20020;-43
2021/12/30 00:39:56;;;;;;;3.03;1.70;;;19.70;72.50;;;;;;5126765;28;20039;-43
2021/12/30 00:42:22;;;;;;;2.35;1.48;;;19.70;72.50;;;;;;5126968;28;20081;-43
2021/12/30 00:44:48;;;;;;;1.80;1.70;;;19.70;72.30;;;;;;5126659;28;20032;-43
2021/12/30 00:47:14;;;;;;;2.03;1.63;;;19.70;72.20;;;;;;5126469;28;20388;-43
2021/12/30 00:49:40;;;;;;;1.80;1.70;;;19.70;72.10;;;;;;5114543;28;20036;-43
2021/12/30 00:52:07;;;;;;;1.83;1.73;;;19.70;72.10;;;;;;5126629;28;20127;-43
2021/12/30 00:54:33;;;;;;;2.05;1.85;;;19.70;72.10;;;;;;5126400;28;20028;-43
2021/12/30 00:56:59;;;;;;;1.83;1.40;;;19.70;72.00;;;;;;5126040;28;20042;-43
2021/12/30 00:59:26;;;;;;;2.63;1.70;;;19.70;71.90;;;;;;5126561;28;20035;-42
2021/12/30 01:01:52;;;;;;;1.70;1.60;;;19.70;71.90;;;;;;5126341;28;20047;-45
2021/12/30 01:04:20;;;;;;;1.88;1.70;;;19.70;72.00;;;;;;5126276;28;20027;-44
2021/12/30 01:06:46;;;;;;;1.80;1.70;;;19.70;71.90;;;;;;5125779;28;20024;-43
2021/12/30 01:09:12;;;;;;;1.15;1.08;;;19.70;71.90;;;;;;5121718;28;20043;-43
2021/12/30 01:11:39;;;;;;;3.80;1.90;;;19.70;72.00;;;;;;5105984;28;20051;-43
2021/12/30 01:14:15;;;;;;;1.88;1.73;;;19.70;72.00;;;;;;5105965;28;20038;-42
2021/12/30 01:16:43;;;;;;;2.97;1.88;;;19.70;71.90;;;;;;5105618;28;20032;-43
2021/12/30 01:21:42;;;;;;;1.98;1.77;;;19.70;71.90;;;;;;5124931;28;20083;-44
2021/12/30 01:24:09;;;;;;;3.40;1.67;;;19.70;71.80;;;;;;5126158;27;20038;-46
2021/12/30 01:26:35;;;;;;;2.10;1.90;;;19.70;71.70;;;;;;5125840;28;20024;-44
2021/12/30 01:29:01;;;;;;;1.98;1.88;;;19.70;71.70;;;;;;5125861;28;20295;-43
2021/12/30 01:31:27;;;;;;;1.65;1.55;;;19.70;71.70;;;;;;5126096;28;20051;-47
2021/12/30 01:33:54;;;;;;;1.80;1.70;;;19.70;71.70;;;;;;5125548;28;20095;-43
2021/12/30 01:36:21;;;;;;;;;;;19.70;71.70;;;;;;5126156;28;20473;-45
2021/12/30 01:38:47;;;;;;;1.88;1.77;;;19.70;72.10;;;;;;5125284;28;19937;-44
2021/12/30 01:41:14;;;;;;;1.95;1.70;;;19.70;72.10;;;;;;5125940;28;20032;-42
2021/12/30 01:43:40;;;;;;;1.95;1.75;;;19.70;72.00;;;;;;5125674;28;20019;-42
2021/12/30 01:46:07;;;;;;;2.67;1.60;;;19.70;72.10;;;;;;5125484;28;20049;-43
2021/12/30 01:48:33;;;;;;;2.03;1.70;;;19.70;72.20;;;;;;5120874;28;20039;-43
2021/12/30 01:50:59;;;;;;;2.25;1.50;;;19.70;72.00;;;;;;5118317;28;20024;-42
2021/12/30 01:53:25;;;;;;;1.50;1.40;;;19.70;72.00;;;;;;5125542;28;20040;-42
2021/12/30 01:55:52;;;;;;;2.10;1.77;;;19.70;71.90;;;;;;5125143;28;20023;-42
2021/12/30 01:58:18;;;;;;;1.88;1.77;;;19.70;72.10;;;;;;5125416;28;20027;-42
2021/12/30 02:00:45;;;;;;;1.95;1.60;;;19.70;72.00;;;;;;5125456;28;20036;-42
2021/12/30 02:03:12;;;;;;;1.90;1.75;;;19.70;71.90;;;;;;5125311;28;20580;-43
2021/12/30 02:05:38;;;;;;;2.97;1.90;;;19.70;71.90;;;;;;5124890;28;20035;-43
2021/12/30 02:08:08;;;;;;;1.95;1.70;;;19.70;71.90;;;;;;5125120;28;20051;-43
2021/12/30 02:10:35;;;;;;;1.70;1.60;;;19.70;71.90;;;;;;5109033;28;20050;-44
2021/12/30 02:13:01;;;;;;;2.03;1.83;;;19.70;71.90;;;;;;5104648;28;20024;-44
2021/12/30 02:15:27;;;;;;;1.80;1.70;;;19.70;71.90;;;;;;5086531;28;20043;-43
2021/12/30 02:17:54;;;;;;;1.60;1.50;;;19.60;71.90;;;;;;5104581;28;20048;-43
2021/12/30 02:20:41;;;;;;;1.92;1.60;;;19.60;72.50;;;;;;5123999;28;20485;-43
2021/12/30 02:23:08;;;;;;;1.70;1.52;;;19.60;71.90;;;;;;5125030;28;20488;-43
2021/12/30 02:25:34;;;;;;;1.88;1.70;;;19.70;71.80;;;;;;5124726;28;20027;-42
2021/12/30 02:28:04;;;;;;;3.08;1.40;;;19.60;71.90;;;;;;5124962;28;20035;-42
2021/12/30 02:30:30;;;;;;;2.40;1.83;;;19.60;71.90;;;;;;5124898;28;20440;-42
2021/12/30 02:32:56;;;;;;;1.50;1.40;;;19.60;72.00;;;;;;5123296;28;20019;-42
2021/12/30 02:35:22;;;;;;;2.05;1.50;;;19.60;71.80;;;;;;5124281;28;20031;-46
2021/12/30 02:37:50;;;;;;;3.13;1.90;;;19.60;71.90;;;;;;5124716;28;20028;-44
2021/12/30 02:40:29;;;;;;;1.98;1.88;;;19.60;71.80;;;;;;5111158;28;20058;-42
2021/12/30 02:42:55;;;;;;;1.70;1.60;;;19.60;71.90;;;;;;5103991;28;20083;-41
2021/12/30 02:45:21;;;;;;;3.20;1.75;;;19.60;71.70;;;;;;5116874;28;20091;-42
2021/12/30 02:47:47;;;;;;;2.72;1.98;;;19.60;71.80;;;;;;5124472;28;20522;-42
2021/12/30 02:50:13;;;;;;;1.92;1.70;;;19.60;71.80;;;;;;5124098;28;20042;-42
2021/12/30 02:52:39;;;;;;;2.25;1.52;;;19.60;71.90;;;;;;5124042;28;20073;-42
2021/12/30 02:55:05;;;;;;;2.15;1.65;;;19.60;71.90;;;;;;5124288;28;20039;-42
2021/12/30 02:57:32;;;;;;;2.07;1.80;;;19.60;71.90;;;;;;5124329;28;20023;-42
2021/12/30 02:59:58;;;;;;;1.63;1.52;;;19.60;71.80;;;;;;5124089;28;20024;-42
2021/12/30 03:02:24;;;;;;;2.10;1.83;;;19.60;71.90;;;;;;5123984;28;20446;-42
2021/12/30 03:04:50;;;;;;;1.45;1.35;;;19.60;71.80;;;;;;5123962;28;20027;-42
2021/12/30 03:07:18;;;;;;;1.60;1.50;;;19.60;71.90;;;;;;5123538;28;20015;-42
2021/12/30 03:09:47;;;;;;;3.30;1.70;;;19.60;72.50;;;;;;5114844;28;20040;-41
2021/12/30 03:12:14;;;;;;;2.05;1.85;;;19.60;71.70;;;;;;5103496;28;20035;-43
2021/12/30 03:14:41;;;;;;;1.77;1.67;;;19.60;71.70;;;;;;5103752;28;20055;-42
2021/12/30 03:17:08;;;;;;;1.52;1.42;;;19.60;71.70;;;;;;5103475;28;20035;-42
2021/12/30 03:19:34;;;;;;;2.08;1.90;;;19.60;72.20;;;;;;5115352;28;20035;-42
2021/12/30 03:22:00;;;;;;;2.95;1.70;;;19.60;72.30;;;;;;5123818;28;20034;-43
2021/12/30 03:24:26;;;;;;;1.63;1.52;;;19.60;71.50;;;;;;5122081;28;20016;-42
2021/12/30 03:26:52;;;;;;;1.77;1.67;;;19.60;71.60;;;;;;5123519;28;20031;-42
2021/12/30 03:29:18;;;;;;;1.75;1.40;;;19.60;71.50;;;;;;5123762;28;20081;-42
2021/12/30 03:31:44;;;;;;;1.63;1.50;;;19.60;71.50;;;;;;5123808;28;20028;-42
2021/12/30 03:34:10;;;;;;;1.60;1.50;;;19.60;71.50;;;;;;5123612;28;20061;-42
2021/12/30 03:36:37;;;;;;;1.50;1.40;;;19.60;71.50;;;;;;5123323;28;20099;-44
2021/12/30 03:39:03;;;;;;;1.57;1.47;;;19.60;72.30;;;;;;5120527;28;20031;-42
2021/12/30 03:41:29;;;;;;;1.67;1.58;;;19.60;71.70;;;;;;5103205;28;20272;-42
2021/12/30 03:43:57;;;;;;;2.15;1.85;;;19.60;71.70;;;;;;5103125;28;20751;-42
2021/12/30 03:46:23;;;;;;;1.83;1.70;;;19.60;71.90;;;;;;5102465;28;20493;-42
2021/12/30 03:48:49;;;;;;;2.00;1.80;;;19.60;71.80;;;;;;5110002;28;20046;-42
2021/12/30 03:51:24;;;;;;;1.75;1.65;;;19.60;71.60;;;;;;5123134;28;20050;-42
2021/12/30 03:53:56;;;;;;;1.83;1.73;;;19.60;71.80;;;;;;5123613;28;20133;-42
2021/12/30 03:56:25;;;;;;;2.25;1.70;;;19.60;71.70;;;;;;5123164;28;20023;-42
2021/12/30 03:58:51;;;;;;;2.10;1.90;;;19.60;71.70;;;;;;5123404;28;20036;-42
2021/12/30 04:01:18;;;;;;;1.95;1.70;;;19.60;71.60;;;;;;5121982;28;20032;-42
2021/12/30 04:03:45;;;;;;;1.90;1.70;;;19.60;71.60;;;;;;5123399;28;20042;-42
2021/12/30 04:06:11;;;;;;;1.50;1.40;;;19.60;71.60;;;;;;5122743;28;20063;-41
2021/12/30 04:08:37;;;;;;;2.85;1.60;;;19.60;71.40;;;;;;5123350;28;20058;-42
2021/12/30 04:11:03;;;;;;;1.42;1.33;;;19.60;71.50;;;;;;5103177;28;20825;-43
2021/12/30 04:13:30;;;;;;;1.50;1.40;;;19.60;71.40;;;;;;5111352;28;20034;-43
2021/12/30 04:15:56;;;;;;;3.53;1.73;;;19.60;71.40;;;;;;5123291;28;20024;-42
2021/12/30 04:18:22;;;;;;;1.60;1.50;;;19.60;71.40;;;;;;5123042;28;20054;-42
2021/12/30 04:20:48;;;;;;;1.75;1.60;;;19.60;71.40;;;;;;5122985;28;20032;-42
2021/12/30 04:23:15;;;;;;;2.03;1.77;;;19.60;71.50;;;;;;5123350;28;20029;-42
2021/12/30 04:25:41;;;;;;;1.63;1.33;;;19.60;71.40;;;;;;5123127;28;20023;-42
2021/12/30 04:28:07;;;;;;;1.85;1.70;;;19.60;71.70;;;;;;5122855;28;20077;-43
2021/12/30 04:30:33;;;;;;;1.80;1.70;;;19.60;71.80;;;;;;5123311;28;20028;-42
2021/12/30 04:32:59;;;;;;;1.58;1.48;;;19.50;71.50;;;;;;5123184;28;20019;-41
2021/12/30 04:35:25;;;;;;;1.70;1.60;;;19.60;71.50;;;;;;5123109;28;20779;-42
2021/12/30 04:37:51;;;;;;;1.75;1.52;;;19.50;71.50;;;;;;5122908;28;20032;-42
2021/12/30 04:40:17;;;;;;;1.88;1.48;;;19.50;71.50;;;;;;5110017;28;20028;-42
2021/12/30 04:42:44;;;;;;;1.60;1.50;;;19.50;71.50;;;;;;5108045;28;20031;-42
2021/12/30 04:45:11;;;;;;;2.00;1.80;;;19.50;71.60;;;;;;5123433;28;20045;-42
2021/12/30 04:47:40;;;;;;;1.60;1.48;;;19.50;71.50;;;;;;5122716;28;20023;-41
2021/12/30 04:50:08;;;;;;;1.60;1.50;;;19.50;71.50;;;;;;5122482;28;20067;-41
2021/12/30 04:52:34;;;;;;;1.90;1.50;;;19.50;71.50;;;;;;5122682;28;20054;-42
2021/12/30 04:55:01;;;;;;;1.58;1.48;;;19.50;71.50;;;;;;5122756;28;20122;-42
2021/12/30 04:57:27;;;;;;;1.50;1.40;;;19.60;71.40;;;;;;5126118;28;20053;-42
2021/12/30 04:59:53;;;;;;;1.75;1.65;;;19.50;72.00;;;;;;5126819;28;20055;-45
2021/12/30 05:02:19;;;;;;;1.60;1.50;;;19.60;71.30;;;;;;5126704;28;20034;-44
2021/12/30 05:04:45;;;;;;;1.63;1.40;;;19.50;71.20;;;;;;5126399;28;20020;-42
2021/12/30 05:07:12;;;;;;;2.42;1.40;;;19.50;71.10;;;;;;5125913;27;20023;-42
2021/12/30 05:09:38;;;;;;;2.25;1.50;;;19.50;72.00;;;;;;5118463;27;20141;-42
2021/12/30 05:12:04;;;;;;;1.52;1.42;;;19.50;71.40;;;;;;5106193;28;20028;-42
2021/12/30 05:14:30;;;;;;;1.90;1.60;;;19.50;71.40;;;;;;5106299;28;20020;-42
2021/12/30 05:17:02;;;;;;;1.58;1.48;;;19.50;71.50;;;;;;5106051;28;20272;-42
2021/12/30 05:19:29;;;;;;;1.77;1.50;;;19.50;71.70;;;;;;5118094;28;20053;-42
2021/12/30 05:21:55;;;;;;;2.83;1.42;;;19.50;71.70;;;;;;5126396;28;20016;-42
2021/12/30 05:24:21;;;;;;;1.38;1.27;;;19.50;71.60;;;;;;5126298;28;20027;-42
2021/12/30 05:26:47;;;;;;;1.83;1.50;;;19.50;71.60;;;;;;5126217;28;20028;-41
2021/12/30 05:29:15;;;;;;;1.40;1.30;;;19.50;71.30;;;;;;5126055;28;20035;-42
2021/12/30 05:31:41;;;;;;;1.90;1.70;;;19.50;71.30;;;;;;5126192;28;20035;-42
2021/12/30 05:34:07;;;;;;;1.65;1.55;;;19.50;71.10;;;;;;5126310;28;20031;-41
2021/12/30 05:36:33;;;;;;;1.42;1.33;;;19.50;71.30;;;;;;5125816;28;20023;-42
2021/12/30 05:39:00;;;;;;;1.60;1.50;;;19.50;71.20;;;;;;5123291;28;20101;-42
2021/12/30 05:41:27;;;;;;;1.70;1.60;;;19.50;71.30;;;;;;5105750;28;20040;-42
2021/12/30 05:43:54;;;;;;;1.50;1.33;;;19.50;71.20;;;;;;5105544;28;20039;-44
2021/12/30 05:46:20;;;;;;;2.05;1.52;;;19.50;71.40;;;;;;5105552;28;20521;-42
2021/12/30 05:48:46;;;;;;;1.50;1.40;;;19.50;72.10;;;;;;5111650;28;20039;-43
2021/12/30 05:51:12;;;;;;;1.70;1.60;;;19.50;71.70;;;;;;5125290;28;20081;-44
2021/12/30 05:53:38;;;;;;;1.45;1.35;;;19.50;71.40;;;;;;5125754;27;20059;-42
2021/12/30 05:56:04;;;;;;;2.45;1.50;;;19.50;71.50;;;;;;5125824;28;20031;-40
2021/12/30 05:58:30;;;;;;;1.58;1.48;;;19.50;71.40;;;;;;5125444;27;20058;-43
2021/12/30 06:00:57;;;;;;;1.60;1.50;;;19.50;71.50;;;;;;5125704;28;20024;-40
2021/12/30 06:03:23;;;;;;;1.35;1.25;;;19.50;71.40;;;;;;5125793;28;20028;-40
2021/12/30 06:05:50;;;;;;;1.50;1.40;;;19.50;71.50;;;;;;5125352;28;20031;-40
2021/12/30 06:08:16;;;;;;;1.30;1.20;;;19.50;71.60;;;;;;5124605;28;20031;-42
2021/12/30 06:10:43;;;;;;;2.13;1.70;;;19.50;71.80;;;;;;5108240;28;20097;-42
2021/12/30 06:13:10;;;;;;;1.48;1.38;;;19.50;71.40;;;;;;5104893;28;20580;-42
2021/12/30 06:15:36;;;;;;;2.00;1.60;;;19.50;71.30;;;;;;5104975;28;20047;-43
2021/12/30 06:18:02;;;;;;;1.75;1.65;;;19.50;71.10;;;;;;5104953;28;20024;-42
2021/12/30 06:20:30;;;;;;;1.85;1.50;;;19.50;71.10;;;;;;5125141;28;20441;-43
2021/12/30 06:22:57;;;;;;;1.83;1.20;;;19.50;71.10;;;;;;5125127;28;20027;-42
2021/12/30 06:25:23;;;;;;;2.13;1.80;;;19.50;71.10;;;;;;5125335;28;20032;-42
2021/12/30 06:27:49;;;;;;;1.58;1.40;;;19.50;71.20;;;;;;5124995;28;20024;-42
2021/12/30 06:30:15;;;;;;;1.92;1.35;;;19.50;71.20;;;;;;5124710;28;20039;-40
2021/12/30 06:32:41;;;;;;;1.38;1.27;;;19.50;71.20;;;;;;5125083;28;20031;-40
2021/12/30 06:35:08;;;;;;;1.50;1.40;;;19.50;71.20;;;;;;5124994;28;20111;-40
2021/12/30 06:37:35;;;;;;;1.70;1.60;;;19.50;71.10;;;;;;5124865;28;20028;-40
2021/12/30 06:40:02;;;;;;;2.72;1.55;;;19.50;71.10;;;;;;5123843;28;20040;-39
2021/12/30 06:42:28;;;;;;;;;;;19.50;71.10;;;;;;5123715;28;20019;-39
2021/12/30 06:44:54;;;;;;;1.30;1.20;;;19.50;71.40;;;;;;5124682;28;19943;-39
2021/12/30 06:47:21;;;;;;;2.20;1.25;;;19.50;71.10;;;;;;5124731;28;20023;-40
2021/12/30 06:49:47;;;;;;;1.50;1.35;;;19.50;71.20;;;;;;5123826;28;20542;-40
2021/12/30 06:52:13;;;;;;;1.50;1.40;;;19.50;71.20;;;;;;5124164;28;20073;-40
2021/12/30 06:54:39;;;;;;;1.70;1.48;;;19.50;71.10;;;;;;5124560;28;20519;-42
2021/12/30 06:57:06;;;;;;;1.90;1.50;;;19.50;71.20;;;;;;5124235;28;20020;-41
2021/12/30 06:59:32;;;;;;;1.70;1.60;;;19.50;71.20;;;;;;5124234;28;20032;-41
2021/12/30 07:01:59;;;;;;;2.28;1.15;;;19.50;71.20;;;;;;5108594;28;20062;-43
2021/12/30 07:04:25;;;;;;;1.83;1.20;;;19.50;71.20;;;;;;5104009;28;20412;-42
2021/12/30 07:06:52;;;;;;;2.67;1.40;;;19.50;71.30;;;;;;5113482;28;20043;-42
2021/12/30 07:09:21;;;;;;;2.45;1.50;;;19.50;71.30;;;;;;5118766;28;20039;-42
2021/12/30 07:11:51;;;;;;;1.67;1.38;;;19.60;71.30;;;;;;5110497;28;20030;-40
2021/12/30 07:14:18;;;;;;;1.90;1.55;;;19.50;71.20;;;;;;5123595;28;20734;-40
2021/12/30 07:16:44;;;;;;;1.42;1.25;;;19.50;71.30;;;;;;5122974;28;20031;-42
2021/12/30 07:19:11;;;;;;;1.60;1.25;;;19.50;71.30;;;;;;5113321;28;20024;-41
2021/12/30 07:21:37;;;;;;;1.42;1.23;;;19.50;71.30;;;;;;5121675;28;20024;-41
2021/12/30 07:24:03;;;;;;;1.80;1.17;;;19.50;71.30;;;;;;5123869;28;20034;-43
2021/12/30 07:26:29;;;;;;;1.17;1.07;;;19.50;71.30;;;;;;5123636;28;20015;-42
2021/12/30 07:28:55;;;;;;;2.15;1.52;;;19.50;71.30;;;;;;5123692;28;20039;-42
2021/12/30 07:31:22;;;;;;;1.50;1.20;;;19.50;71.40;;;;;;5123931;28;20110;-42
2021/12/30 07:33:48;;;;;;;1.55;1.25;;;19.50;71.30;;;;;;5123794;28;20031;-41
2021/12/30 07:36:14;;;;;;;1.25;1.15;;;19.50;71.30;;;;;;5123348;28;20092;-42
2021/12/30 07:38:40;;;;;;;2.45;1.42;;;19.50;71.40;;;;;;5123562;28;20023;-41
2021/12/30 07:41:06;;;;;;;1.40;1.30;;;19.50;71.40;;;;;;5103516;28;20028;-41
2021/12/30 07:43:33;;;;;;;3.00;1.55;;;19.50;71.50;;;;;;5103580;28;20047;-42
2021/12/30 07:45:59;;;;;;;1.20;1.10;;;19.60;71.50;;;;;;5103355;28;20056;-42
2021/12/30 07:48:26;;;;;;;1.50;1.40;;;19.50;71.50;;;;;;5106765;28;20039;-42
2021/12/30 07:50:52;;;;;;;1.52;1.42;;;19.50;71.50;;;;;;5123094;28;20023;-43
2021/12/30 07:53:18;;;;;;;1.65;1.40;;;19.50;71.50;;;;;;5123364;28;20052;-45
2021/12/30 07:55:44;;;;;;;1.17;1.08;;;19.50;71.60;;;;;;5123685;28;20030;-42
2021/12/30 07:58:10;;;;;;;1.27;1.13;;;19.50;71.50;;;;;;5123316;28;20028;-42
2021/12/30 08:00:36;;;;;;;1.50;1.30;;;19.50;71.50;;;;;;5123109;28;20569;-41
2021/12/30 08:03:02;;;;;;;2.42;1.13;;;19.60;71.70;;;;;;5123393;28;20050;-41
2021/12/30 08:05:28;;;;;;;1.30;1.20;;;19.50;71.50;;;;;;5123373;28;20053;-42
2021/12/30 08:07:55;;;;;;;1.15;1.05;;;19.50;71.50;;;;;;5123269;28;20028;-42
2021/12/30 08:10:22;;;;;;;1.20;1.10;;;19.50;71.50;;;;;;5108685;28;20054;-41
2021/12/30 08:12:49;;;;;;;1.15;1.05;;;19.50;71.80;;;;;;5101707;28;20028;-41
2021/12/30 08:15:15;;;;;;;1.17;1.08;;;19.50;71.70;;;;;;5102775;28;20039;-41
2021/12/30 08:17:42;;;;;;;1.20;1.00;;;19.50;71.50;;;;;;5102943;28;20032;-42
2021/12/30 08:20:09;;;;;;;1.25;1.10;;;19.50;72.20;;;;;;5120534;28;20035;-41
2021/12/30 08:22:35;;;;;;;1.83;1.30;;;19.50;71.50;;;;;;5123163;28;20551;-42
2021/12/30 08:25:01;;;;;;;0.90;0.90;;;19.50;71.60;;;;;;5123133;28;20038;-42
2021/12/30 08:27:27;;;;;;;1.40;1.27;;;19.50;71.50;;;;;;5123204;28;20031;-41
2021/12/30 08:29:54;;;;;;;0.90;0.90;;;19.50;71.40;;;;;;5122627;28;20062;-42
2021/12/30 08:32:20;;;;;;;1.45;1.20;;;19.50;71.50;;;;;;5126085;28;20023;-41
2021/12/30 08:34:46;;;;;;;1.45;1.05;;;19.50;71.90;;;;;;5126832;28;20099;-41
2021/12/30 08:37:13;;;;;;;1.45;1.35;;;19.50;71.90;;;;;;5127043;28;20020;-41
2021/12/30 08:39:40;;;;;;;1.35;1.20;;;19.50;71.80;;;;;;5125066;28;20084;-41
2021/12/30 08:42:15;;;;;;;1.13;1.02;;;19.50;71.80;;;;;;5127042;28;20028;-41
2021/12/30 08:44:41;;;;;;;1.38;0.90;;;19.50;71.80;;;;;;5126661;28;20020;-41
2021/12/30 08:47:07;;;;;;;1.80;1.20;;;19.50;71.70;;;;;;5126687;28;20023;-41
2021/12/30 08:49:34;;;;;;;1.30;1.15;;;19.50;71.70;;;;;;5125528;28;20036;-41
2021/12/30 08:52:00;;;;;;;1.85;1.23;;;19.50;71.80;;;;;;5106128;28;20040;-41
2021/12/30 08:54:26;;;;;;;1.30;1.00;;;19.60;72.70;;;;;;5106294;28;20036;-40
2021/12/30 08:56:52;;;;;;;1.67;1.23;;;19.50;72.10;;;;;;5106375;28;20035;-41
2021/12/30 08:59:18;;;;;;;1.05;0.90;;;19.50;71.80;;;;;;5109771;28;20059;-41
2021/12/30 09:01:44;;;;;;;1.58;1.35;;;19.50;71.90;;;;;;5126432;28;20024;-42
2021/12/30 09:04:10;;;;;;;1.10;1.00;;;19.50;72.00;;;;;;5126569;28;20683;-41
2021/12/30 09:06:36;;;;;;;1.42;1.33;;;19.50;71.90;;;;;;5126328;28;20034;-42
2021/12/30 09:09:02;;;;;;;1.10;1.05;;;19.50;72.00;;;;;;5124939;28;20040;-41
2021/12/30 09:11:29;;;;;;;1.25;1.15;;;19.50;72.00;;;;;;5126492;28;20030;-41
2021/12/30 09:13:55;;;;;;;1.05;0.95;;;19.50;71.70;;;;;;5126497;28;20027;-41
2021/12/30 09:16:21;;;;;;;2.17;1.20;;;19.50;71.70;;;;;;5125751;28;20039;-42
2021/12/30 09:18:47;;;;;;;1.10;0.90;;;19.50;71.70;;;;;;5126261;28;20027;-43
2021/12/30 09:21:13;;;;;;;1.30;1.00;;;19.50;71.80;;;;;;5126033;28;20138;-42
2021/12/30 09:23:39;;;;;;;1.58;0.95;;;19.50;71.70;;;;;;5126056;28;20024;-41
2021/12/30 09:26:05;;;;;;;1.38;1.00;;;19.50;71.60;;;;;;5126002;28;20028;-42
2021/12/30 09:28:31;;;;;;;1.25;1.13;;;19.50;71.90;;;;;;5126045;28;20053;-42
2021/12/30 09:30:57;;;;;;;1.30;1.00;;;19.50;71.80;;;;;;5126062;28;20034;-42
2021/12/30 09:33:23;;;;;;;1.17;1.08;;;19.50;71.80;;;;;;5125879;28;20023;-43
2021/12/30 09:35:50;;;;;;;1.02;0.93;;;19.50;72.60;;;;;;5125783;28;20138;-43
2021/12/30 09:38:16;;;;;;;0.73;0.73;;;19.60;71.90;;;;;;5125788;28;20020;-43
2021/12/30 09:40:42;;;;;;;1.20;1.10;;;19.50;71.80;;;;;;5124729;28;20108;-42
2021/12/30 09:43:09;;;;;;;0.80;0.80;;;19.50;71.80;;;;;;5124855;28;20122;-41
2021/12/30 09:45:37;;;;;;;1.00;0.93;;;19.50;71.90;;;;;;5125806;27;20047;-41
2021/12/30 09:48:06;;;;;;;1.10;1.00;;;19.50;72.10;;;;;;5125728;28;20027;-42
2021/12/30 09:50:35;;;;;;;0.82;0.80;;;19.50;71.90;;;;;;5116163;28;20134;-41
2021/12/30 09:53:01;;;;;;;1.23;0.93;;;19.50;71.80;;;;;;5104815;28;20047;-41
2021/12/30 09:55:27;;;;;;;1.20;1.10;;;19.50;71.70;;;;;;5104957;28;20111;-41
2021/12/30 09:57:55;;;;;;;1.05;0.95;;;19.50;72.00;;;;;;5105203;28;20055;-41
2021/12/30 10:00:22;;;;;;;1.10;1.00;;;19.50;71.80;;;;;;5105124;28;20024;-41
2021/12/30 10:02:48;;;;;;;1.50;0.90;;;19.50;71.90;;;;;;5105090;28;20032;-40
2021/12/30 10:05:19;;;;;;;1.55;0.93;;;19.50;72.00;;;;;;5104312;28;20039;-41
2021/12/30 10:07:45;;;;;;;1.20;1.10;;;19.50;71.90;;;;;;5122325;28;20059;-41
2021/12/30 10:10:31;;;;;;;1.05;0.80;;;19.50;71.90;;;;;;5122923;28;20040;-41
2021/12/30 10:12:57;;;;;;;1.05;0.90;;;19.50;71.90;;;;;;5125433;28;20177;-41
2021/12/30 10:15:26;;;;;;;1.20;1.00;;;19.50;71.80;;;;;;5124870;28;20058;-42
2021/12/30 10:18:02;;;;;;;1.40;1.02;;;19.50;72.50;;;;;;5125144;28;20575;-41
2021/12/30 10:20:30;;;;;;;1.10;1.00;;;19.50;71.90;;;;;;5112947;28;20032;-42
2021/12/30 10:23:24;;;;;;;0.90;0.90;;;19.50;72.00;;;;;;5124938;28;20466;-41
2021/12/30 10:25:52;;;;;;;1.25;1.10;;;19.50;72.00;;;;;;5124634;28;20034;-41
2021/12/30 10:28:21;;;;;;;1.60;1.05;;;19.50;71.90;;;;;;5124895;28;20434;-41
2021/12/30 10:30:48;;;;;;;1.10;0.93;;;19.50;72.10;;;;;;5125003;28;20036;-42
2021/12/30 10:33:17;;;;;;;0.93;0.82;;;19.50;71.90;;;;;;5124894;28;20056;-40
2021/12/30 10:35:44;;;;;;;0.90;0.70;;;19.50;71.90;;;;;;5124051;27;20036;-41
2021/12/30 10:38:11;;;;;;;2.25;1.00;;;19.50;71.90;;;;;;5124342;28;20020;-41
2021/12/30 10:40:44;;;;;;;;;;;19.50;72.00;;;;;;5108336;28;20129;-41
2021/12/30 10:43:34;;;;;;;0.90;0.90;;;19.50;72.00;;;;;;5123609;28;19903;-40
2021/12/30 10:46:04;;;;;;;1.33;0.85;;;19.50;71.80;;;;;;5124231;28;20083;-42
2021/12/30 10:48:31;;;;;;;1.10;0.93;;;19.50;71.90;;;;;;5124508;28;20028;-41
2021/12/30 10:51:11;;;;;;;1.23;0.88;;;19.50;71.80;;;;;;5111145;28;20028;-42
2021/12/30 10:53:38;;;;;;;2.13;1.00;;;19.50;72.00;;;;;;5103762;28;20143;-42
2021/12/30 10:56:35;;;;;;;1.03;0.90;;;19.50;72.10;;;;;;5123724;28;20032;-43
2021/12/30 10:59:22;;;;;;;0.90;0.90;;;19.50;72.10;;;;;;5122735;28;20036;-42
2021/12/30 11:02:02;;;;;;;2.85;1.20;;;19.50;72.10;;;;;;5124173;27;20063;-43
2021/12/30 11:04:37;;;;;;;0.98;0.90;;;19.50;71.90;;;;;;5124093;28;20491;-42
2021/12/30 11:07:03;;;;;;;0.80;0.70;;;19.50;72.00;;;;;;5123725;28;20891;-41
2021/12/30 11:09:29;;;;;;;1.83;0.90;;;19.50;72.70;;;;;;5117717;28;20032;-42
2021/12/30 11:12:00;;;;;;;1.00;0.90;;;19.50;72.00;;;;;;5103607;28;20038;-42
2021/12/30 11:14:31;;;;;;;1.17;0.90;;;19.50;72.00;;;;;;5103638;28;20031;-42
2021/12/30 11:17:10;;;;;;;1.00;0.90;;;19.50;72.00;;;;;;5103396;28;20020;-43
2021/12/30 11:19:52;;;;;;;1.23;1.00;;;19.50;72.00;;;;;;5117102;28;20559;-42
2021/12/30 11:22:20;;;;;;;1.00;0.90;;;19.50;72.00;;;;;;5123383;28;20024;-42
2021/12/30 11:24:47;;;;;;;1.08;0.80;;;19.50;72.20;;;;;;5123420;28;20028;-42
2021/12/30 11:27:14;;;;;;;0.70;0.70;;;19.50;72.20;;;;;;5123349;28;20081;-42
2021/12/30 11:29:43;;;;;;;1.88;1.00;;;19.50;72.20;;;;;;5123665;28;20080;-42
2021/12/30 11:32:09;;;;;;;1.00;0.90;;;19.50;72.10;;;;;;5123657;28;20020;-42
2021/12/30 11:34:35;;;;;;;0.70;0.70;;;19.50;72.10;;;;;;5123750;28;20073;-42
2021/12/30 11:37:02;;;;;;;1.00;0.90;;;19.50;72.10;;;;;;5123025;28;20028;-42
2021/12/30 11:39:28;;;;;;;1.10;1.02;;;19.50;72.00;;;;;;5122500;28;20043;-43
2021/12/30 11:41:57;;;;;;;1.02;0.93;;;19.50;72.00;;;;;;5123240;28;20051;-42
2021/12/30 11:44:38;;;;;;;0.85;0.80;;;19.50;72.10;;;;;;5123378;28;20033;-43
2021/12/30 11:47:05;;;;;;;1.25;0.90;;;19.50;72.00;;;;;;5123299;28;20036;-44
2021/12/30 11:50:14;;;;;;;1.10;1.00;;;19.50;72.10;;;;;;5122764;28;20049;-42
2021/12/30 11:52:52;;;;;;;1.30;1.00;;;19.50;72.10;;;;;;5122404;28;20075;-42
2021/12/30 11:55:39;;;;;;;0.82;0.82;;;19.50;72.10;;;;;;5123526;28;20134;-44
2021/12/30 11:58:27;;;;;;;0.90;0.90;;;19.50;72.20;;;;;;5123149;28;20049;-42
2021/12/30 12:01:17;;;;;;;1.25;1.00;;;19.50;72.20;;;;;;5123120;28;20024;-42
2021/12/30 12:03:47;;;;;;;0.80;0.80;;;19.50;72.10;;;;;;5108831;28;20027;-42
2021/12/30 12:06:27;;;;;;;0.85;0.85;;;19.50;72.20;;;;;;5122379;28;20095;-42
2021/12/30 12:09:32;;;;;;;0.73;0.73;;;19.50;72.30;;;;;;5121456;28;20035;-43
2021/12/30 12:12:06;;;;;;;1.58;0.98;;;19.50;72.20;;;;;;5102686;28;20082;-42
2021/12/30 12:14:45;;;;;;;0.80;0.73;;;19.50;72.30;;;;;;5102712;28;20043;-42
2021/12/30 12:17:28;;;;;;;0.80;0.80;;;19.50;72.30;;;;;;5102493;28;20055;-42
2021/12/30 12:19:55;;;;;;;0.70;0.70;;;19.50;72.30;;;;;;5118791;28;20024;-42
2021/12/30 12:22:21;;;;;;;0.75;0.75;;;19.50;72.10;;;;;;5122991;28;20040;-44
2021/12/30 12:24:51;;;;;;;1.55;0.80;;;19.50;72.30;;;;;;5123137;28;20031;-42
2021/12/30 12:27:20;;;;;;;1.10;1.00;;;19.50;72.10;;;;;;5122832;28;20034;-42
2021/12/30 12:29:55;;;;;;;1.10;1.00;;;19.50;72.20;;;;;;5122796;28;20095;-42
2021/12/30 12:32:39;;;;;;;0.88;0.85;;;19.50;72.00;;;;;;5122797;28;20026;-43
2021/12/30 12:35:17;;;;;;;0.70;0.70;;;19.50;72.20;;;;;;5123055;28;20043;-42
2021/12/30 12:37:47;;;;;;;0.93;0.80;;;19.50;72.10;;;;;;5122431;28;20024;-42
2021/12/30 12:40:16;;;;;;;0.90;0.90;;;19.50;72.00;;;;;;5121422;28;20051;-42
2021/12/30 12:42:53;;;;;;;1.10;0.95;;;19.50;72.20;;;;;;5122562;28;20024;-42
2021/12/30 12:45:36;;;;;;;0.75;0.75;;;19.50;72.10;;;;;;5122814;28;20020;-43
2021/12/30 12:48:18;;;;;;;1.15;0.90;;;19.50;72.20;;;;;;5122573;28;20040;-42
2021/12/30 12:51:01;;;;;;;0.82;0.82;;;19.50;72.30;;;;;;5122695;28;20065;-42
2021/12/30 12:53:31;;;;;;;1.35;1.25;;;19.50;72.20;;;;;;5122378;28;20054;-41
2021/12/30 12:55:57;;;;;;;1.15;0.90;;;19.50;72.30;;;;;;5122524;28;20111;-43